Arusha Airport


Codes: HTAR/ARK
Name: Arusha Airport
City: Arusha
Country: Tanzania
Elevation: 4550 ft.
Wikipedia:

Photos at Arusha Airport


   Photos courtesy of SpottingLog. You can add your own sightings and photos by signing up for a free trial today.



No photos found.

Weather at Arusha Airport


Time (UTC)DescriptionTempratureWindCloud coverageVisibilityPressureHumidity
17-Jun-2024 06:00Broken Clouds18°C7 mph, SE59%10000m1021hPa61%
17-Jun-2024 09:00Broken Clouds20°C7 mph, SE51%10000m1020hPa56%
17-Jun-2024 12:00Scattered Clouds23°C7 mph, SE39%10000m1016hPa46%
17-Jun-2024 15:00Clear Sky22°C4 mph, E10%10000m1015hPa47%
17-Jun-2024 18:00Clear Sky17°C4 mph, E6%10000m1018hPa52%
17-Jun-2024 21:00Clear Sky15°C7 mph, E0%10000m1019hPa61%
18-Jun-2024 00:00Clear Sky13°C4 mph, E2%10000m1018hPa75%
18-Jun-2024 03:00Clear Sky12°C2 mph, SE4%10000m1019hPa72%
18-Jun-2024 06:00Clear Sky19°C4 mph, SE4%10000m1020hPa53%
18-Jun-2024 09:00Clear Sky24°C7 mph, SE9%10000m1017hPa42%
18-Jun-2024 12:00Clear Sky25°C4 mph, SE10%10000m1014hPa35%
18-Jun-2024 15:00Overcast Clouds22°C4 mph, SE98%10000m1015hPa48%
18-Jun-2024 18:00Overcast Clouds17°C7 mph, E95%10000m1018hPa64%
18-Jun-2024 21:00Broken Clouds16°C9 mph, E81%10000m1019hPa82%
19-Jun-2024 00:00Broken Clouds15°C4 mph, E54%10000m1018hPa91%
19-Jun-2024 03:00Scattered Clouds14°C2 mph, E26%10000m1018hPa94%
19-Jun-2024 06:00Scattered Clouds19°C7 mph, SE37%10000m1019hPa77%
19-Jun-2024 09:00Overcast Clouds21°C7 mph, SE93%10000m1018hPa64%
19-Jun-2024 12:00Broken Clouds24°C7 mph, SE75%10000m1014hPa51%
19-Jun-2024 15:00Scattered Clouds22°C9 mph, SE30%10000m1015hPa63%
19-Jun-2024 18:00Light Rain17°C7 mph, E39%10000m1018hPa89%
19-Jun-2024 21:00Light Rain17°C7 mph, E64%10000m1019hPa94%
20-Jun-2024 00:00Light Rain17°C7 mph, SE81%2911m1018hPa97%
20-Jun-2024 03:00Light Rain17°C4 mph, E100%6363m1018hPa95%
20-Jun-2024 06:00Overcast Clouds18°C4 mph, E100%10000m1020hPa87%
20-Jun-2024 09:00Light Rain21°C7 mph, SE100%10000m1018hPa67%
20-Jun-2024 12:00Light Rain23°C9 mph, SE94%10000m1015hPa61%
20-Jun-2024 15:00Light Rain20°C7 mph, E95%10000m1017hPa74%
20-Jun-2024 18:00Light Rain17°C7 mph, SE88%10000m1020hPa88%
20-Jun-2024 21:00Light Rain17°C7 mph, SE94%10000m1021hPa93%
21-Jun-2024 00:00Light Rain16°C7 mph, E95%10000m1019hPa94%
21-Jun-2024 03:00Broken Clouds14°C2 mph, E52%10000m1021hPa95%
21-Jun-2024 06:00Scattered Clouds18°C7 mph, SE30%10000m1022hPa69%
21-Jun-2024 09:00Clear Sky22°C11 mph, SE2%10000m1020hPa47%
21-Jun-2024 12:00Clear Sky23°C13 mph, SE7%10000m1017hPa43%
21-Jun-2024 15:00Scattered Clouds20°C9 mph, SE30%10000m1018hPa57%
21-Jun-2024 18:00Few Clouds17°C4 mph, SE19%10000m1020hPa72%
21-Jun-2024 21:00Scattered Clouds15°C7 mph, E33%10000m1021hPa91%
22-Jun-2024 00:00Scattered Clouds15°C4 mph, E39%10000m1019hPa95%
22-Jun-2024 03:00Light Rain15°C4 mph, E76%10000m1020hPa94%